Latest Weather Observations for Douglas River

IDD60801

Issued at 5:11 pm CST Friday 3 December 2021 (issued every 10 minutes, with the page automatically refreshed every 10 minutes)

About weather observations | Map of weather stations | Latest weather observations for NT | Other Formats
Station Details ID: 014901 Name: DOUGLAS RIVER RESEARCH FARM Lat: -13.83 Lon: 131.19 Height: 42.8 m
Data from the previous 72 hours. | See also: Recent months at Douglas River
Date/Time
CST
Temp
°C
App
Temp
°C
Dew
Point
°C
Rel
Hum
%
Delta-T
°C
Wind Press
QNH
hPa
Press
MSL
hPa
Rain since
9am
mm
Dir  Spd
km/h
Gust
km/h
Spd
kts
Gust
kts
03/05:00pm 38.0 40.7 19.4 33 12.5 NNW 4 9 2 5 1004.1 1003.7 1.8
03/04:30pm 38.0 40.8 20.8 37 11.7 NNW 7 11 4 6 1004.1 1003.7 1.6
03/04:00pm 37.9 41.2 21.9 39 11.0 SW 7 9 4 5 1004.3 1003.9 1.6
03/03:30pm 34.0 34.6 21.4 47 8.6 S 20 46 11 25 1004.7 1004.3 1.6
03/03:26pm 32.7 31.4 23.1 57 6.6 SE 35 69 19 37 1005.0 1004.6 1.6
03/03:21pm 32.2 31.1 21.7 54 7.1 E 30 69 16 37 1005.2 1004.8 1.4
03/03:18pm 34.7 34.6 19.5 40 10.1 NE 19 69 10 37 1004.9 1004.5 1.2
03/03:17pm 34.3 35.9 20.7 45 9.1 NNE 13 69 7 37 1005.0 1004.6 1.2
03/03:00pm 33.9 35.6 21.7 49 8.3 NW 15 24 8 13 1005.2 1004.8 1.2
03/02:52pm 33.1 37.1 23.7 57 6.6 NW 9 17 5 9 1005.3 1004.9 1.2
03/02:30pm 38.9 42.1 21.6 37 11.9 N 7 15 4 8 1005.6 1005.2 0.0
03/02:00pm 38.0 40.8 20.8 37 11.7 NNE 7 13 4 7 1006.2 1005.8 0.0
03/01:30pm 38.1 40.8 21.3 37 11.5 NW 9 15 5 8 1006.7 1006.4 0.0
03/01:00pm 38.0 42.1 24.0 44 9.9 NNW 9 19 5 10 1007.2 1006.9 0.0
03/12:30pm 37.2 40.9 22.5 42 10.2 NE 7 11 4 6 1007.7 1007.4 0.0
03/12:00pm 37.1 40.8 23.2 45 9.7 WSW 9 13 5 7 1008.3 1008.0 0.0
03/11:30am 35.6 39.9 23.6 50 8.4 SW 7 11 4 6 1008.9 1008.6 0.0
03/11:00am 35.5 40.9 25.1 55 7.4 WSW 6 13 3 7 1009.4 1009.1 0.0
03/10:30am 34.3 39.3 24.5 56 6.9 WNW 6 11 3 6 1009.9 1009.6 0.0
03/10:00am 33.6 39.1 25.3 62 5.9 W 6 11 3 6 1010.2 1009.9 0.0
03/09:30am 32.6 38.4 25.7 67 4.9 W 6 13 3 7 1010.2 1009.9 0.0
03/09:00am 31.7 37.2 25.3 69 4.5 WNW 6 9 3 5 1010.1 1009.8 0.0
03/08:30am 30.3 35.5 24.2 70 4.3 N 4 7 2 4 1010.1 1009.8 0.0
03/08:00am 29.7 34.9 23.6 69 4.2 SE 2 6 1 3 1009.9 1009.6 0.0
03/07:30am 28.3 32.4 23.0 73 3.6 SE 6 7 3 4 1009.7 1009.4 0.0
03/07:00am 25.8 30.9 23.3 86 1.7 SSW 2 7 1 4 1009.4 1009.1 0.0
03/06:30am 24.2 28.1 22.5 90 1.1 S 6 7 3 4 1009.0 1008.7 0.0
03/06:00am 24.2 29.1 22.3 89 1.3 CALM 0 0 0 0 1008.5 1008.2 0.0
03/05:30am 24.5 29.6 22.6 89 1.3 CALM 0 0 0 0 1008.2 1007.9 0.0
03/05:00am 24.6 29.5 22.3 87 1.5 CALM 0 0 0 0 1007.6 1007.3 0.0
03/04:30am 24.9 29.8 22.4 86 1.7 CALM 0 0 0 0 1007.3 1007.0 0.0
03/04:00am 25.5 30.6 22.6 84 2.0 CALM 0 0 0 0 1007.2 1006.9 0.0
03/03:30am 25.9 31.0 22.6 82 2.2 CALM 0 6 0 3 1007.2 1006.9 0.0
03/03:00am 26.1 30.2 22.2 79 2.6 NNW 4 6 2 3 1007.2 1006.9 0.0
03/02:30am 26.0 30.5 22.3 80 2.5 N 2 6 1 3 1007.4 1007.1 0.0
03/02:00am 25.9 30.7 22.2 80 2.5 CALM 0 6 0 3 1007.6 1007.3 0.0
03/01:30am 26.0 30.1 22.3 80 2.5 NNE 4 7 2 4 1007.6 1007.3 0.0
03/01:00am 26.1 30.3 22.4 80 2.5 NNE 4 7 2 4 1007.9 1007.6 0.0
03/12:30am 26.6 30.2 22.4 78 2.8 NNE 7 9 4 5 1007.9 1007.6 0.0
03/12:00am 27.2 30.8 23.0 78 2.9 NNW 9 11 5 6 1007.9 1007.6 0.0
 
Date/Time
CST
Temp
°C
App
Temp
°C
Dew
Point
°C
Rel
Hum
%
Delta-T
°C
Wind Press
QNH
hPa
Press
MSL
hPa
Rain since
9am
mm
Dir  Spd
km/h
Gust
km/h
Spd
kts
Gust
kts
02/11:30pm 27.4 31.1 22.6 75 3.3 NNW 7 11 4 6 1008.2 1007.9 0.0
02/11:00pm 27.3 31.3 22.7 76 3.1 WNW 6 7 3 4 1008.4 1008.1 0.0
02/10:30pm 28.2 32.0 22.4 71 3.9 NNW 6 7 3 4 1008.6 1008.3 0.0
02/10:00pm 28.5 32.1 22.3 69 4.2 NNW 7 13 4 7 1008.4 1008.1 0.0
02/09:30pm 28.9 32.4 22.2 67 4.5 NNW 7 11 4 6 1008.3 1008.0 0.0
02/09:00pm 29.6 33.6 22.1 64 5.1 NW 4 7 2 4 1007.9 1007.6 0.0
02/08:30pm 30.4 33.4 22.0 60 5.7 NW 9 15 5 8 1007.9 1007.6 0.0
02/08:00pm 31.0 34.3 22.6 61 5.7 WNW 9 17 5 9 1007.4 1007.1 0.0
02/07:30pm 31.4 34.1 22.1 57 6.3 NW 11 17 6 9 1007.1 1006.8 0.0
02/07:00pm 32.5 35.4 21.7 53 7.3 NW 9 15 5 8 1006.5 1006.2 0.0
02/06:30pm 33.8 36.4 21.2 47 8.5 NW 9 15 5 8 1006.1 1005.7 0.0
02/06:00pm 35.2 37.9 20.7 42 9.8 W 7 13 4 7 1005.6 1005.2 0.0
02/05:30pm 36.3 38.2 21.3 41 10.2 W 13 19 7 10 1005.1 1004.7 0.0
02/05:00pm 36.3 38.9 20.5 39 10.7 NW 7 11 4 6 1004.3 1003.9 0.0
02/04:30pm 37.6 39.6 20.0 36 11.9 NW 9 11 5 6 1004.7 1004.3 0.0
02/04:00pm 36.5 39.7 22.3 44 9.8 NNW 9 13 5 7 1005.0 1004.6 0.0
02/03:30pm 34.5 37.2 22.2 48 8.5 NNW 11 17 6 9 1005.3 1004.9 0.0
02/03:00pm 35.9 39.0 22.1 44 9.5 NNW 9 15 5 8 1005.7 1005.3 0.0
02/02:30pm 36.5 40.2 22.3 44 9.8 N 6 9 3 5 1005.8 1005.4 0.0
02/02:00pm 36.8 39.9 21.4 41 10.5 NNW 7 11 4 6 1006.2 1005.8 0.0
02/01:30pm 38.4 40.2 21.1 36 11.8 WNW 13 19 7 10 1006.5 1006.2 0.0
02/01:00pm 37.4 39.7 20.7 38 11.3 WSW 9 17 5 9 1007.0 1006.7 0.0
02/12:30pm 37.3 40.0 22.2 41 10.4 NNW 11 15 6 8 1007.5 1007.2 0.0
02/12:00pm 37.0 39.2 21.2 40 10.8 WSW 11 17 6 9 1008.0 1007.7 0.0
02/11:30am 36.5 38.9 22.3 44 9.8 W 13 26 7 14 1008.4 1008.1 0.0
02/11:00am 34.9 37.6 22.9 49 8.3 WNW 13 17 7 9 1008.7 1008.4 0.0
02/10:30am 34.2 38.5 24.2 56 7.0 W 9 17 5 9 1009.2 1008.9 0.0
02/10:00am 33.7 37.5 23.4 55 7.2 S 9 17 5 9 1009.7 1009.4 0.0
02/09:30am 32.3 36.9 25.4 67 4.9 SSW 11 17 6 9 1009.9 1009.6 0.0
02/09:00am 31.1 36.0 26.4 76 3.4 WNW 13 19 7 10 1009.2 1008.9 0.8
02/08:30am 30.4 36.6 26.6 80 2.7 WNW 7 13 4 7 1009.5 1009.2 0.8
02/08:00am 29.0 35.5 25.6 82 2.4 NNW 2 7 1 4 1009.3 1009.0 0.8
02/07:30am 27.2 33.5 24.7 86 1.7 CALM 0 0 0 0 1009.1 1008.8 0.8
02/07:00am 26.2 32.0 23.9 87 1.6 CALM 0 0 0 0 1009.0 1008.7 0.8
02/06:30am 25.2 30.8 23.6 91 1.1 CALM 0 6 0 3 1008.4 1008.1 0.8
02/06:00am 24.9 29.3 23.5 92 1.0 N 6 7 3 4 1008.2 1007.9 0.8
02/05:30am 25.1 30.5 23.2 89 1.3 CALM 0 4 0 2 1008.0 1007.7 0.8
02/05:00am 25.3 29.5 23.4 89 1.3 NE 7 9 4 5 1007.7 1007.4 0.8
02/04:30am 25.2 30.3 23.4 90 1.2 NNE 2 7 1 4 1007.4 1007.1 0.8
02/04:00am 25.8 30.3 23.7 88 1.4 N 6 7 3 4 1007.0 1006.7 0.8
02/03:30am 25.6 30.6 23.8 90 1.2 N 4 6 2 3 1007.0 1006.7 0.8
02/03:00am 25.0 30.5 23.4 91 1.1 CALM 0 0 0 0 1007.1 1006.8 0.8
02/02:30am 25.7 31.4 23.7 89 1.4 CALM 0 0 0 0 1007.3 1007.0 0.8
02/02:00am 25.9 31.5 23.6 87 1.6 CALM 0 0 0 0 1007.2 1006.9 0.8
02/01:30am 26.5 32.0 23.4 83 2.1 CALM 0 0 0 0 1007.2 1006.9 0.8
02/01:00am 26.9 31.5 23.2 80 2.5 NNE 4 9 2 5 1007.4 1007.1 0.8
02/12:30am 27.1 31.9 22.9 78 2.9 N 2 6 1 3 1007.6 1007.3 0.8
02/12:00am 27.4 31.3 22.6 75 3.3 N 6 7 3 4 1007.8 1007.5 0.8
 
Date/Time
CST
Temp
°C
App
Temp
°C
Dew
Point
°C
Rel
Hum
%
Delta-T
°C
Wind Press
QNH
hPa
Press
MSL
hPa
Rain since
9am
mm
Dir  Spd
km/h
Gust
km/h
Spd
kts
Gust
kts
01/11:30pm 27.6 31.1 22.1 72 3.7 NNE 7 9 4 5 1008.1 1007.8 0.8
01/11:00pm 28.1 31.7 22.1 70 4.0 NNE 6 7 3 4 1008.1 1007.8 0.8
01/10:30pm 28.7 31.6 21.7 66 4.7 W 9 15 5 8 1008.1 1007.8 0.8
01/10:00pm 29.3 31.7 21.5 63 5.2 WNW 11 17 6 9 1008.0 1007.7 0.8
01/09:30pm 30.0 32.9 21.7 61 5.6 WNW 9 15 5 8 1007.9 1007.6 0.8
01/09:00pm 30.4 33.2 22.3 62 5.5 NNW 11 20 6 11 1008.0 1007.7 0.8
01/08:30pm 30.0 33.8 22.7 65 5.0 NNE 7 11 4 6 1007.9 1007.6 0.8
01/08:00pm 30.6 33.5 22.5 62 5.5 NW 11 17 6 9 1007.3 1007.0 0.8
01/07:30pm 30.8 33.4 22.7 62 5.6 NNW 13 20 7 11 1006.6 1006.3 0.8
01/07:00pm 31.5 33.3 22.5 59 6.2 NNW 17 22 9 12 1006.1 1005.7 0.8
01/06:30pm 32.6 34.4 21.8 53 7.4 NNW 15 32 8 17 1005.6 1005.2 0.8
01/06:00pm 33.1 38.9 24.0 59 6.4 CALM 0 0 0 0 1005.0 1004.6 0.8
01/05:30pm 34.0 39.5 24.0 56 7.0 NE 2 7 1 4 1004.6 1004.2 0.8
01/05:00pm 33.9 40.4 25.0 59 6.3 CALM 0 0 0 0 1004.3 1003.9 0.8
01/04:30pm 32.7 34.5 19.6 46 8.7 N 9 15 5 8 1004.0 1003.6 0.8
01/04:14pm 29.7 29.4 20.3 57 6.2 SE 22 41 12 22 1004.6 1004.2 0.6
01/04:00pm 29.8 28.0 23.0 67 4.7 SSE 37 61 20 33 1004.6 1004.2 0.0
01/03:51pm 33.9 33.2 20.3 45 9.1 SSE 24 57 13 31 1004.2 1003.8 0.0
01/03:30pm 39.4 42.3 20.6 33 12.8 SE 6 13 3 7 1004.3 1003.9 0.0
01/03:00pm 37.4 40.0 21.9 40 10.7 W 11 20 6 11 1004.8 1004.4 0.0
01/02:30pm 37.3 40.8 22.2 41 10.5 W 7 15 4 8 1005.2 1004.8 0.0
01/02:00pm 36.9 40.0 22.2 42 10.1 N 9 15 5 8 1005.9 1005.5 0.0
01/01:30pm 36.1 39.4 22.6 45 9.4 NNW 9 19 5 10 1006.8 1006.5 0.0
01/01:00pm 35.9 40.1 23.5 48 8.7 NW 7 15 4 8 1007.3 1007.0 0.0
01/12:30pm 34.9 38.6 23.2 50 8.1 NNW 9 13 5 7 1007.8 1007.5 0.0
01/12:00pm 35.0 39.1 24.0 53 7.7 WSW 9 15 5 8 1008.4 1008.1 0.0
01/11:30am 33.7 38.2 24.6 59 6.4 NW 9 17 5 9 1008.8 1008.5 0.0
01/11:00am 32.5 36.9 24.5 62 5.6 NNW 9 13 5 7 1009.1 1008.8 0.0
01/10:30am 32.6 38.0 25.4 66 5.1 WSW 7 13 4 7 1009.5 1009.2 0.0
01/10:00am 32.0 36.7 25.6 69 4.6 W 11 15 6 8 1009.8 1009.5 0.0
01/09:30am 31.5 37.0 26.1 73 3.9 WNW 9 13 5 7 1010.0 1009.7 0.0
01/09:00am 30.6 35.5 25.2 73 3.8 NNW 9 15 5 8 1009.9 1009.6 0.0
01/08:30am 29.7 34.7 25.4 78 3.0 NNW 9 15 5 8 1009.6 1009.3 0.0
01/08:00am 28.7 34.2 25.3 82 2.4 N 6 9 3 5 1009.2 1008.9 0.0
01/07:30am 27.0 32.0 24.5 86 1.7 N 6 7 3 4 1008.9 1008.6 0.0
01/07:00am 25.9 30.7 24.1 90 1.2 N 6 9 3 5 1008.7 1008.4 0.0
01/06:30am 25.0 29.9 23.6 92 1.0 ENE 4 6 2 3 1008.2 1007.9 0.0
01/06:00am 25.1 29.6 23.7 92 1.0 NNE 6 9 3 5 1007.9 1007.6 0.0
01/05:30am 25.0 30.6 23.6 92 1.0 CALM 0 0 0 0 1007.8 1007.4 0.0
01/05:00am 25.2 30.6 23.8 92 1.0 NE 2 7 1 4 1007.7 1007.3 0.0
01/04:30am 25.4 30.0 23.8 91 1.1 ENE 6 9 3 5 1007.3 1006.9 0.0
01/04:00am 25.6 31.2 24.2 92 1.0 ENE 2 7 1 4 1006.7 1006.3 0.0
01/03:30am 25.8 31.9 24.4 92 1.0 CALM 0 6 0 3 1005.9 1005.5 0.0
01/03:00am 26.0 30.9 24.4 91 1.1 N 6 9 3 5 1005.6 1005.2 0.0
01/02:30am 26.2 31.0 24.4 90 1.2 N 7 11 4 6 1005.6 1005.2 0.0
01/02:00am 26.0 30.8 24.4 91 1.1 NNE 7 15 4 8 1005.7 1005.3 0.0
01/01:30am 27.1 32.2 24.7 87 1.7 NNW 6 9 3 5 1005.6 1005.2 0.0
01/01:00am 27.3 32.4 24.9 87 1.7 NNW 7 9 4 5 1006.1 1005.7 0.0
01/12:30am 27.5 33.8 24.7 85 2.0 CALM 0 0 0 0 1006.4 1006.0 0.0
01/12:00am 27.9 33.4 24.7 83 2.2 NW 4 7 2 4 1006.8 1006.4 0.0
 
Date/Time
CST
Temp
°C
App
Temp
°C
Dew
Point
°C
Rel
Hum
%
Delta-T
°C
Wind Press
QNH
hPa
Press
MSL
hPa
Rain since
9am
mm
Dir  Spd
km/h
Gust
km/h
Spd
kts
Gust
kts
30/11:30pm 28.3 33.3 24.5 80 2.7 NW 6 9 3 5 1007.1 1006.7 0.0
30/11:00pm 28.8 33.7 24.6 78 2.9 NW 7 9 4 5 1007.2 1006.8 0.0
30/10:30pm 29.4 34.3 24.7 76 3.3 NNW 7 11 4 6 1007.0 1006.6 0.0
30/10:00pm 30.0 34.7 24.9 74 3.6 NW 9 15 5 8 1006.9 1006.5 0.0
30/09:30pm 30.6 35.2 24.7 71 4.1 NW 9 15 5 8 1006.6 1006.2 0.0
30/09:00pm 31.3 35.0 23.9 64 5.2 NW 11 17 6 9 1006.1 1005.7 0.0
30/08:30pm 32.4 34.8 21.6 53 7.3 NNW 11 19 6 10 1005.8 1005.4 0.0
30/08:00pm 33.0 35.6 20.5 47 8.4 N 7 11 4 6 1005.2 1004.8 0.0
30/07:30pm 32.7 35.2 19.9 46 8.5 NNW 6 9 3 5 1004.6 1004.2 0.0
30/07:00pm 34.5 36.7 19.3 40 10.0 NNW 6 9 3 5 1004.2 1003.8 0.0
30/06:30pm 35.4 37.5 18.9 37 10.9 NW 6 9 3 5 1004.0 1003.6 0.0
30/06:00pm 36.1 38.1 19.1 36 11.3 NNW 7 11 4 6 1003.7 1003.3 0.0
30/05:30pm 37.2 39.0 19.6 35 11.8 N 9 15 5 8 1003.5 1003.1 0.0

Other formats

Comma delimited format used in spreadsheet applications
http://www.bom.gov.au/fwo/IDD60801/IDD60801.94128.axf

JavaScript Object Notation format (JSON) in row-major order
http://www.bom.gov.au/fwo/IDD60801/IDD60801.94128.json

Data quality

Most of these data are generated automatically and are frequently updated. Quality checks on data are not normally performed. It is possible for incorrect values to appear. Refer to information at About Latest Weather Observations and please check the disclaimer before using these data.